Time;durP1;ratioP1;P1;durP2;ratioP2;P2;SDS_P1;SDS_P2;PMS_P1;PMS_P2;Temp;Humidity;BMP_temperature;BMP_pressure;BME280_temperature;BME280_humidity;BME280_pressure;Samples;Min_cycle;Max_cycle;Signal;HPM_P1;HPM_P2
2023/09/07 00:00:59;;;;;;;0.20;0.20;;;;;;;18.87;100.00;99501.09;5117523;28;20237;-54
2023/09/07 00:03:46;;;;;;;0.10;0.10;;;;;;;18.86;100.00;99491.34;5117215;28;20201;-54
2023/09/07 00:06:34;;;;;;;0.20;0.20;;;;;;;18.98;100.00;99488.50;5115843;28;20216;-54
2023/09/07 00:09:23;;;;;;;0.10;0.10;;;;;;;18.94;100.00;99501.38;5117185;28;20703;-54
2023/09/07 00:12:10;;;;;;;0.20;0.20;;;;;;;18.81;100.00;99506.19;5117173;28;20228;-54
2023/09/07 00:14:58;;;;;;;0.20;0.20;;;;;;;18.77;100.00;99504.78;5117066;28;20194;-54
2023/09/07 00:17:45;;;;;;;0.10;0.10;;;;;;;18.86;100.00;99501.25;5117089;28;20182;-55
2023/09/07 00:20:33;;;;;;;0.17;0.17;;;;;;;18.68;100.00;99495.75;5117070;28;20206;-54
2023/09/07 00:23:20;;;;;;;0.10;0.10;;;;;;;18.56;100.00;99494.16;5115400;28;20197;-54
2023/09/07 00:26:09;;;;;;;0.10;0.10;;;;;;;18.62;100.00;99507.00;5116742;28;20218;-54
2023/09/07 00:28:55;;;;;;;0.20;0.20;;;;;;;18.64;100.00;99497.00;5116925;28;20202;-54
2023/09/07 00:31:42;;;;;;;0.20;0.20;;;;;;;18.74;100.00;99492.50;5116710;28;20260;-54
2023/09/07 00:34:29;;;;;;;0.10;0.10;;;;;;;18.80;100.00;99493.75;5116932;28;20202;-55
2023/09/07 00:37:16;;;;;;;0.10;0.10;;;;;;;18.74;100.00;99491.66;5115321;28;20232;-55
2023/09/07 00:40:08;;;;;;;0.10;0.10;;;;;;;18.66;100.00;99483.47;5116570;28;20276;-54
2023/09/07 00:42:57;;;;;;;0.10;0.10;;;;;;;18.62;100.00;99484.69;5116679;28;20810;-54
2023/09/07 00:45:43;;;;;;;0.10;0.10;;;;;;;18.49;100.00;99488.50;5115385;28;20293;-54
2023/09/07 00:48:33;;;;;;;0.10;0.10;;;;;;;18.43;100.00;99480.16;5115352;28;20198;-54
2023/09/07 00:51:20;;;;;;;0.20;0.20;;;;;;;18.32;100.00;99486.50;5115344;28;20202;-54
2023/09/07 00:54:07;;;;;;;0.10;0.10;;;;;;;18.28;100.00;99488.63;5116344;28;20194;-54
2023/09/07 00:56:55;;;;;;;0.10;0.10;;;;;;;18.32;100.00;99486.50;5115160;28;20191;-54
2023/09/07 00:59:44;;;;;;;0.20;0.20;;;;;;;18.38;100.00;99485.09;5116292;28;20198;-54
2023/09/07 01:02:31;;;;;;;0.20;0.20;;;;;;;18.30;100.00;99489.31;5116282;28;20202;-54
2023/09/07 01:05:19;;;;;;;0.10;0.10;;;;;;;18.34;100.00;99486.38;5114680;28;20712;-54
2023/09/07 01:08:13;;;;;;;0.10;0.10;;;;;;;18.27;100.00;99481.56;5113910;28;20224;-55
2023/09/07 01:11:00;;;;;;;0.10;0.10;;;;;;;18.34;100.00;99487.22;5116114;28;20202;-54
2023/09/07 01:13:47;;;;;;;0.10;0.10;;;;;;;18.17;100.00;99479.84;5116178;28;20197;-54
2023/09/07 01:16:38;;;;;;;0.10;0.10;;;;;;;18.20;100.00;99476.88;5116003;28;20209;-54
2023/09/07 01:19:25;;;;;;;0.20;0.20;;;;;;;18.27;100.00;99472.69;5114927;28;20195;-54
2023/09/07 01:22:14;;;;;;;0.20;0.20;;;;;;;18.06;100.00;99471.94;5114653;28;20202;-54
2023/09/07 01:25:02;;;;;;;0.10;0.10;;;;;;;17.99;100.00;99463.59;5114824;28;20198;-54
2023/09/07 01:27:50;;;;;;;0.10;0.10;;;;;;;18.05;100.00;99468.41;5115621;28;20699;-55
2023/09/07 01:30:38;;;;;;;0.10;0.10;;;;;;;17.98;100.00;99467.25;5115742;28;20420;-54
2023/09/07 01:33:25;;;;;;;0.13;0.13;;;;;;;18.02;100.00;99460.63;5114705;28;20237;-54
2023/09/07 01:36:12;;;;;;;0.10;0.10;;;;;;;18.07;100.00;99469.13;5115567;28;20669;-54
2023/09/07 01:39:00;;;;;;;0.20;0.20;;;;;;;18.02;100.00;99460.63;5115616;28;20268;-54
2023/09/07 01:41:47;;;;;;;0.10;0.10;;;;;;;17.97;100.00;99461.06;5115552;28;20222;-53
2023/09/07 01:44:35;;;;;;;0.10;0.10;;;;;;;17.97;100.00;99462.88;5114423;28;20255;-54
2023/09/07 01:47:23;;;;;;;0.10;0.10;;;;;;;17.88;100.00;99475.28;5114297;28;20202;-54
2023/09/07 01:50:10;;;;;;;0.10;0.10;;;;;;;17.92;100.00;99470.47;5115298;28;20186;-54
2023/09/07 01:52:57;;;;;;;0.10;0.10;;;;;;;17.94;100.00;99468.50;5112903;28;20194;-54
2023/09/07 01:55:47;;;;;;;0.10;0.10;;;;;;;17.86;100.00;99466.53;5114168;28;20267;-54
2023/09/07 01:58:34;;;;;;;0.10;0.10;;;;;;;17.88;100.00;99469.91;5114199;28;20456;-54
2023/09/07 02:01:22;;;;;;;0.10;0.10;;;;;;;18.02;100.00;99479.38;5114013;28;20190;-54
2023/09/07 02:04:09;;;;;;;0.10;0.10;;;;;;;18.02;100.00;99466.84;5113908;28;20245;-54
2023/09/07 02:06:56;;;;;;;0.10;0.10;;;;;;;17.77;100.00;99470.03;5112895;28;20289;-54
2023/09/07 02:09:43;;;;;;;0.10;0.10;;;;;;;17.95;100.00;99478.25;5114446;28;20198;-54
2023/09/07 02:12:31;;;;;;;0.10;0.10;;;;;;;17.82;100.00;99475.81;5113835;28;20186;-54
2023/09/07 02:15:19;;;;;;;0.10;0.10;;;;;;;17.79;100.00;99477.94;5114873;28;20198;-54
2023/09/07 02:18:05;;;;;;;0.20;0.20;;;;;;;17.77;100.00;99483.44;5113253;28;20214;-54
2023/09/07 02:20:52;;;;;;;0.10;0.10;;;;;;;17.78;100.00;99478.91;5113734;28;20190;-54
2023/09/07 02:23:40;;;;;;;0.10;0.10;;;;;;;17.69;100.00;99476.06;5112722;28;20240;-54
2023/09/07 02:26:26;;;;;;;0.10;0.10;;;;;;;17.65;100.00;99471.06;5114310;28;20191;-54
2023/09/07 02:29:15;;;;;;;0.10;0.10;;;;;;;17.66;100.00;99468.28;5114538;28;20252;-54
2023/09/07 02:32:02;;;;;;;0.10;0.10;;;;;;;17.62;100.00;99474.88;5113575;28;20202;-54
2023/09/07 02:34:49;;;;;;;0.10;0.10;;;;;;;17.63;100.00;99471.19;5114291;28;20197;-54
2023/09/07 02:37:37;;;;;;;0.10;0.10;;;;;;;17.66;100.00;99473.63;5111794;28;20217;-54
2023/09/07 02:40:25;;;;;;;0.10;0.10;;;;;;;17.65;100.00;99477.25;5113370;28;20186;-54
2023/09/07 02:43:12;;;;;;;0.10;0.10;;;;;;;17.66;100.00;99472.75;5114106;28;20706;-54
2023/09/07 02:46:00;;;;;;;0.10;0.10;;;;;;;17.69;100.00;99478.75;5114237;28;20198;-54
2023/09/07 02:48:47;;;;;;;0.10;0.10;;;;;;;17.78;100.00;99477.09;5113149;28;20195;-54
2023/09/07 02:51:34;;;;;;;0.10;0.10;;;;;;;17.78;100.00;99468.19;5111558;28;20625;-54
2023/09/07 02:54:21;;;;;;;0.10;0.10;;;;;;;17.68;100.00;99468.97;5114052;28;20245;-54
2023/09/07 02:57:08;;;;;;;0.20;0.20;;;;;;;17.64;100.00;99466.69;5113896;28;20210;-54
2023/09/07 02:59:55;;;;;;;0.10;0.10;;;;;;;17.41;100.00;99466.88;5113905;28;20728;-54
2023/09/07 03:02:43;;;;;;;0.10;0.10;;;;;;;17.43;100.00;99467.59;5112893;28;20190;-54
2023/09/07 03:05:30;;;;;;;0.10;0.10;;;;;;;17.45;100.00;99462.94;5113661;28;20237;-54
2023/09/07 03:08:17;;;;;;;0.10;0.10;;;;;;;17.40;100.00;99472.38;5111357;28;20279;-54
2023/09/07 03:11:05;;;;;;;0.10;0.10;;;;;;;17.45;100.00;99473.66;5112853;28;20252;-54
2023/09/07 03:13:52;;;;;;;0.10;0.10;;;;;;;17.40;100.00;99475.91;5112811;28;20217;-54
2023/09/07 03:16:39;;;;;;;0.10;0.10;;;;;;;17.47;100.00;99468.19;5113488;28;20193;-54
2023/09/07 03:19:29;;;;;;;0.10;0.10;;;;;;;17.56;100.00;99459.31;5112779;28;20202;-54
2023/09/07 03:22:16;;;;;;;0.10;0.10;;;;;;;17.73;100.00;99465.91;5111563;28;20194;-54
2023/09/07 03:25:03;;;;;;;0.10;0.10;;;;;;;17.69;100.00;99459.09;5113441;28;20234;-54
2023/09/07 03:27:50;;;;;;;0.10;0.10;;;;;;;17.67;100.00;99455.72;5112524;28;20353;-55
2023/09/07 03:30:37;;;;;;;0.10;0.10;;;;;;;17.70;100.00;99455.47;5112650;28;20275;-54
2023/09/07 03:33:24;;;;;;;0.10;0.10;;;;;;;17.70;100.00;99445.59;5113413;28;20296;-54
2023/09/07 03:36:14;;;;;;;0.10;0.10;;;;;;;17.63;100.00;99456.97;5113416;28;20189;-55
2023/09/07 03:39:01;;;;;;;0.10;0.10;;;;;;;17.70;100.00;99453.63;5113562;28;20198;-54
2023/09/07 03:41:48;;;;;;;0.10;0.10;;;;;;;17.86;100.00;99453.13;5112297;28;20201;-54
2023/09/07 03:44:35;;;;;;;0.10;0.10;;;;;;;17.75;100.00;99453.22;5112383;28;20232;-54
2023/09/07 03:47:22;;;;;;;0.10;0.10;;;;;;;17.64;100.00;99450.63;5112319;28;20320;-54
2023/09/07 03:50:10;;;;;;;0.10;0.10;;;;;;;17.61;100.00;99454.44;5112291;28;20264;-54
2023/09/07 03:52:58;;;;;;;0.10;0.10;;;;;;;17.68;100.00;99455.59;5110965;28;20202;-54
2023/09/07 03:55:46;;;;;;;0.10;0.10;;;;;;;17.70;100.00;99458.16;5111910;28;20287;-54
2023/09/07 03:58:36;;;;;;;0.10;0.10;;;;;;;17.62;100.00;99464.16;5111983;28;20221;-55
2023/09/07 04:01:23;;;;;;;0.10;0.10;;;;;;;17.76;100.00;99471.00;5112277;28;20198;-54
2023/09/07 04:04:10;;;;;;;0.10;0.10;;;;;;;17.82;100.00;99469.59;5112105;28;20225;-54
2023/09/07 04:06:57;;;;;;;0.10;0.10;;;;;;;17.84;100.00;99467.63;5111819;28;20198;-54
2023/09/07 04:09:46;;;;;;;0.10;0.10;;;;;;;17.97;100.00;99468.25;5113154;28;20194;-54
2023/09/07 04:12:33;;;;;;;0.10;0.10;;;;;;;17.79;100.00;99468.06;5113275;28;20309;-55
2023/09/07 04:15:20;;;;;;;0.10;0.10;;;;;;;17.79;100.00;99476.09;5113233;28;20198;-54
2023/09/07 04:18:07;;;;;;;0.10;0.10;;;;;;;17.71;100.00;99467.88;5112899;28;20210;-54
2023/09/07 04:20:54;;;;;;;0.10;0.10;;;;;;;17.64;100.00;99464.00;5113010;28;20560;-54
2023/09/07 04:23:41;;;;;;;0.10;0.10;;;;;;;17.52;100.00;99468.63;5112081;28;20218;-55
2023/09/07 04:26:30;;;;;;;0.10;0.10;;;;;;;17.59;100.00;99472.47;5112003;28;20236;-54
2023/09/07 04:29:17;;;;;;;0.20;0.20;;;;;;;17.50;100.00;99467.91;5112022;28;20187;-54
2023/09/07 04:32:04;;;;;;;0.10;0.10;;;;;;;17.45;100.00;99470.97;5111843;28;20245;-54
2023/09/07 04:34:55;;;;;;;0.10;0.10;;;;;;;17.55;100.00;99473.69;5115791;28;20199;-54
2023/09/07 04:37:43;;;;;;;0.10;0.10;;;;;;;17.57;100.00;99471.75;5114300;28;20218;-54
2023/09/07 04:40:30;;;;;;;0.10;0.10;;;;;;;17.67;100.00;99469.13;5115722;28;20557;-55
2023/09/07 04:43:18;;;;;;;0.10;0.10;;;;;;;17.82;100.00;99470.44;5116652;28;20197;-54
2023/09/07 04:46:05;;;;;;;0.10;0.10;;;;;;;17.72;100.00;99470.41;5115517;28;20269;-54
2023/09/07 04:48:52;;;;;;;0.10;0.10;;;;;;;17.60;100.00;99470.63;5115549;28;20189;-54
2023/09/07 04:51:39;;;;;;;0.10;0.10;;;;;;;17.38;100.00;99477.88;5115164;28;20190;-54
2023/09/07 04:54:26;;;;;;;0.20;0.20;;;;;;;17.37;100.00;99481.53;5116385;28;20197;-55
2023/09/07 04:57:17;;;;;;;0.10;0.10;;;;;;;17.42;100.00;99481.97;5116240;28;20194;-54
2023/09/07 05:00:07;;;;;;;0.10;0.10;;;;;;;17.51;100.00;99479.47;5115256;28;20194;-54
2023/09/07 05:02:54;;;;;;;0.10;0.10;;;;;;;17.29;100.00;99489.38;5116126;28;20218;-55
2023/09/07 05:05:43;;;;;;;0.10;0.10;;;;;;;17.09;100.00;99491.09;5115901;28;20230;-54
2023/09/07 05:08:30;;;;;;;0.10;0.10;;;;;;;16.93;100.00;99490.69;5113951;28;20181;-54
2023/09/07 05:11:18;;;;;;;0.10;0.10;;;;;;;16.93;100.00;99511.25;5114719;28;20668;-54
2023/09/07 05:14:04;;;;;;;0.10;0.10;;;;;;;17.00;100.00;99499.91;5115867;28;20200;-54
2023/09/07 05:16:53;;;;;;;0.10;0.10;;;;;;;17.04;100.00;99498.66;5114915;28;20194;-54
2023/09/07 05:19:39;;;;;;;0.10;0.10;;;;;;;17.38;100.00;99499.31;5115426;28;20221;-54
2023/09/07 05:22:32;;;;;;;0.10;0.10;;;;;;;17.29;100.00;99504.59;5113470;28;20637;-54
2023/09/07 05:25:20;;;;;;;0.10;0.10;;;;;;;17.20;100.00;99506.25;5115827;28;20194;-54
2023/09/07 05:28:06;;;;;;;0.10;0.10;;;;;;;17.18;100.00;99508.22;5115273;28;20194;-54
2023/09/07 05:30:53;;;;;;;0.10;0.10;;;;;;;17.38;100.00;99514.53;5115705;28;20668;-54
2023/09/07 05:33:43;;;;;;;0.10;0.10;;;;;;;17.35;100.00;99507.56;5114434;28;20194;-54
2023/09/07 05:36:31;;;;;;;0.10;0.10;;;;;;;17.34;100.00;99507.72;5114261;28;20217;-54
2023/09/07 05:39:17;;;;;;;0.10;0.10;;;;;;;17.52;100.00;99516.00;5113385;28;20214;-54
2023/09/07 05:42:05;;;;;;;0.10;0.10;;;;;;;17.30;100.00;99515.19;5114061;28;20331;-54
2023/09/07 05:44:52;;;;;;;0.20;0.20;;;;;;;17.21;100.00;99518.66;5113333;28;20385;-54
2023/09/07 05:47:42;;;;;;;0.10;0.10;;;;;;;17.27;100.00;99514.56;5114419;28;20194;-54
2023/09/07 05:50:30;;;;;;;0.20;0.20;;;;;;;17.25;100.00;99516.53;5113163;28;20276;-54
2023/09/07 05:53:19;;;;;;;0.10;0.10;;;;;;;17.53;100.00;99517.69;5113842;28;20277;-54
2023/09/07 05:56:06;;;;;;;0.10;0.10;;;;;;;17.51;100.00;99523.19;5113373;28;20264;-54
2023/09/07 05:58:54;;;;;;;0.10;0.10;;;;;;;17.36;100.00;99508.44;5113966;28;20587;-54
2023/09/07 06:01:41;;;;;;;0.10;0.10;;;;;;;17.60;100.00;99518.84;5113853;28;20202;-54
2023/09/07 06:04:28;;;;;;;0.20;0.20;;;;;;;17.61;100.00;99517.88;5113630;28;20218;-54
2023/09/07 06:07:18;;;;;;;0.10;0.10;;;;;;;17.80;100.00;99515.31;5112213;28;20339;-54
2023/09/07 06:10:05;;;;;;;0.10;0.10;;;;;;;17.85;100.00;99522.91;5113928;28;20320;-54
2023/09/07 06:12:53;;;;;;;0.10;0.10;;;;;;;17.85;100.00;99525.59;5113457;28;20316;-54
2023/09/07 06:15:40;;;;;;;0.10;0.10;;;;;;;17.97;100.00;99525.38;5113942;28;20296;-54
2023/09/07 06:18:28;;;;;;;0.10;0.10;;;;;;;17.96;100.00;99523.69;5113235;28;20226;-54
2023/09/07 06:21:15;;;;;;;0.10;0.10;;;;;;;17.87;100.00;99520.97;5111571;28;20264;-54
2023/09/07 06:24:06;;;;;;;0.10;0.10;;;;;;;18.04;100.00;99523.00;5113650;28;20186;-54
2023/09/07 06:26:53;;;;;;;0.10;0.10;;;;;;;18.15;100.00;99527.41;5112914;28;20205;-54
2023/09/07 06:29:40;;;;;;;0.10;0.10;;;;;;;18.27;100.00;99526.31;5113387;28;20275;-54
2023/09/07 06:32:27;;;;;;;0.10;0.10;;;;;;;18.41;100.00;99525.91;5112917;28;20251;-55
2023/09/07 06:35:13;;;;;;;0.10;0.10;;;;;;;18.48;100.00;99536.94;5111907;28;20197;-54
2023/09/07 06:38:00;;;;;;;0.10;0.10;;;;;;;18.62;100.00;99528.47;5112951;28;20197;-54
2023/09/07 06:40:50;;;;;;;0.10;0.10;;;;;;;18.66;100.00;99532.59;5113350;28;20295;-54
2023/09/07 06:43:39;;;;;;;0.10;0.10;;;;;;;18.82;100.00;99540.97;5113165;28;20198;-55
2023/09/07 06:46:27;;;;;;;0.10;0.10;;;;;;;18.94;100.00;99535.44;5113196;28;20268;-55
2023/09/07 06:49:15;;;;;;;0.10;0.10;;;;;;;18.95;100.00;99540.66;5113717;28;20739;-55
2023/09/07 06:52:02;;;;;;;0.10;0.10;;;;;;;18.97;100.00;99546.72;5112774;28;20214;-54
2023/09/07 06:54:52;;;;;;;0.10;0.10;;;;;;;19.08;100.00;99546.56;5112727;28;20198;-55
2023/09/07 06:57:41;;;;;;;0.10;0.10;;;;;;;19.31;100.00;99562.41;5112732;28;20194;-54
2023/09/07 07:00:28;;;;;;;0.10;0.10;;;;;;;19.49;100.00;99543.66;5113530;28;20221;-55
2023/09/07 07:03:15;;;;;;;0.10;0.10;;;;;;;19.72;100.00;99550.44;5112270;28;20202;-54
2023/09/07 07:06:02;;;;;;;0.10;0.10;;;;;;;19.78;100.00;99547.13;5112377;28;20226;-54
2023/09/07 07:08:49;;;;;;;0.10;0.10;;;;;;;19.98;100.00;99548.78;5112555;28;20190;-54
2023/09/07 07:11:39;;;;;;;0.10;0.10;;;;;;;20.21;100.00;99543.00;5112632;28;20224;-55
2023/09/07 07:14:28;;;;;;;0.10;0.10;;;;;;;20.37;100.00;99545.88;5110174;28;20194;-55
2023/09/07 07:17:14;;;;;;;0.10;0.10;;;;;;;20.81;100.00;99540.63;5112716;28;20198;-54
2023/09/07 07:20:01;;;;;;;0.10;0.10;;;;;;;20.89;100.00;99548.78;5112501;28;20214;-54
2023/09/07 07:22:49;;;;;;;0.10;0.10;;;;;;;21.16;100.00;99545.16;5112126;28;20744;-55
2023/09/07 07:25:38;;;;;;;0.10;0.10;;;;;;;21.34;100.00;99548.69;5112243;28;20194;-55
2023/09/07 07:28:24;;;;;;;0.10;0.10;;;;;;;21.74;100.00;99549.13;5113216;28;20194;-55
2023/09/07 07:31:13;;;;;;;0.10;0.10;;;;;;;21.81;100.00;99540.22;5111996;28;20194;-55
2023/09/07 07:34:03;;;;;;;0.10;0.10;;;;;;;22.18;100.00;99537.19;5112528;28;20231;-55
2023/09/07 07:36:51;;;;;;;0.10;0.10;;;;;;;22.21;100.00;99533.34;5110198;28;20198;-55
2023/09/07 07:39:38;;;;;;;0.10;0.10;;;;;;;22.41;100.00;99534.75;5111813;28;20234;-55
2023/09/07 07:42:25;;;;;;;0.10;0.10;;;;;;;22.48;100.00;99529.53;5112390;28;20197;-55
2023/09/07 07:45:12;;;;;;;0.10;0.10;;;;;;;22.81;100.00;99527.75;5113095;28;20193;-55
2023/09/07 07:48:01;;;;;;;0.10;0.10;;;;;;;23.03;100.00;99532.50;5112337;28;20222;-54
2023/09/07 07:50:48;;;;;;;0.10;0.10;;;;;;;23.31;100.00;99529.44;5111949;28;20194;-55
2023/09/07 07:53:35;;;;;;;0.10;0.10;;;;;;;23.60;100.00;99528.94;5112259;28;20201;-55
2023/09/07 07:56:25;;;;;;;0.10;0.10;;;;;;;23.56;100.00;99528.41;5112001;28;20198;-55
2023/09/07 07:59:13;;;;;;;0.10;0.10;;;;;;;23.77;100.00;99532.44;5112204;28;20709;-55
2023/09/07 08:02:00;;;;;;;0.10;0.10;;;;;;;23.87;100.00;99535.78;5111918;28;20193;-55
2023/09/07 08:04:49;;;;;;;0.10;0.10;;;;;;;24.22;100.00;99520.91;5111957;28;20226;-55
2023/09/07 08:07:36;;;;;;;0.10;0.10;;;;;;;24.22;100.00;99529.91;5110795;28;20206;-55
2023/09/07 08:10:23;;;;;;;0.10;0.10;;;;;;;24.70;100.00;99527.94;5117009;28;20284;-55
2023/09/07 08:13:10;;;;;;;0.10;0.10;;;;;;;24.76;100.00;99529.09;5116994;28;20198;-55
2023/09/07 08:15:57;;;;;;;0.10;0.10;;;;;;;24.96;100.00;99533.00;5116989;28;20198;-55
2023/09/07 08:18:45;;;;;;;0.10;0.10;;;;;;;24.97;100.00;99531.97;5116927;28;20198;-55
2023/09/07 08:21:35;;;;;;;0.10;0.10;;;;;;;25.12;100.00;99532.06;5114726;28;20204;-55
2023/09/07 08:24:22;;;;;;;0.10;0.10;;;;;;;25.20;100.00;99532.00;5116612;28;20256;-55
2023/09/07 08:27:11;;;;;;;0.10;0.10;;;;;;;25.21;100.00;99532.84;5115936;28;20369;-55
2023/09/07 08:29:59;;;;;;;0.10;0.10;;;;;;;25.52;100.00;99524.56;5115681;28;20233;-55
2023/09/07 08:32:45;;;;;;;0.10;0.10;;;;;;;25.60;100.00;99525.34;5117047;28;20704;-55
2023/09/07 08:35:35;;;;;;;0.00;0.00;;;;;;;25.64;100.00;99515.78;5115395;28;20216;-55
2023/09/07 08:38:27;;;;;;;0.10;0.10;;;;;;;25.96;98.89;99521.88;5115384;28;20268;-55
2023/09/07 08:41:15;;;;;;;0.10;0.10;;;;;;;26.00;99.74;99523.22;5116201;28;20233;-55
2023/09/07 08:44:03;;;;;;;0.10;0.10;;;;;;;26.22;98.74;99516.81;5116347;28;20190;-56
2023/09/07 08:46:50;;;;;;;0.03;0.03;;;;;;;26.26;92.46;99514.56;5116550;28;20202;-55
2023/09/07 08:49:38;;;;;;;0.05;0.05;;;;;;;26.38;89.22;99520.38;5116642;28;20191;-55
2023/09/07 08:52:25;;;;;;;0.00;0.00;;;;;;;26.48;85.39;99512.75;5114864;28;20708;-55
2023/09/07 08:55:13;;;;;;;0.10;0.10;;;;;;;26.43;82.88;99516.03;5116462;28;20205;-55
2023/09/07 08:58:00;;;;;;;0.10;0.10;;;;;;;26.62;79.31;99509.13;5116398;28;20185;-55
2023/09/07 09:00:49;;;;;;;0.00;0.00;;;;;;;26.80;76.74;99514.97;5115805;28;20283;-55
2023/09/07 09:03:36;;;;;;;0.10;0.10;;;;;;;26.76;80.12;99508.25;5116036;28;20200;-55
2023/09/07 09:06:23;;;;;;;0.10;0.10;;;;;;;27.03;79.55;99506.66;5114598;28;20205;-55
2023/09/07 09:09:13;;;;;;;0.00;0.00;;;;;;;26.63;79.96;99513.53;5115890;28;20201;-55
2023/09/07 09:12:09;;;;;;;0.00;0.00;;;;;;;27.03;79.10;99519.41;5116256;28;20206;-55
2023/09/07 09:14:56;;;;;;;0.00;0.00;;;;;;;27.18;76.69;99514.72;5114386;28;20202;-54
2023/09/07 09:17:43;;;;;;;0.10;0.10;;;;;;;27.51;75.88;99511.44;5115986;28;20193;-55
2023/09/07 09:20:30;;;;;;;0.10;0.10;;;;;;;27.37;74.32;99510.47;5113331;28;20236;-55
2023/09/07 09:23:16;;;;;;;0.03;0.03;;;;;;;27.81;72.89;99507.47;5114618;28;20259;-55
2023/09/07 09:26:05;;;;;;;0.10;0.10;;;;;;;28.03;72.84;99497.31;5115544;28;20313;-55
2023/09/07 09:28:53;;;;;;;0.10;0.10;;;;;;;28.53;70.43;99500.66;5115539;28;20245;-55
2023/09/07 09:31:40;;;;;;;0.03;0.03;;;;;;;28.77;65.93;99496.53;5115382;28;20273;-55
2023/09/07 09:34:29;;;;;;;0.00;0.00;;;;;;;29.04;64.62;99497.41;5115597;28;20206;-55
2023/09/07 09:37:16;;;;;;;0.00;0.00;;;;;;;29.24;58.92;99495.53;5114214;28;20232;-55
2023/09/07 09:40:05;;;;;;;0.08;0.08;;;;;;;28.95;56.84;99493.19;5115453;28;20218;-55
2023/09/07 09:42:55;;;;;;;0.10;0.10;;;;;;;28.80;58.29;99487.91;5115294;28;20195;-55
2023/09/07 09:45:43;;;;;;;0.00;0.00;;;;;;;29.18;60.45;99487.34;5115516;28;20202;-55
2023/09/07 09:48:32;;;;;;;0.00;0.00;;;;;;;29.19;59.41;99487.13;5115070;28;20198;-55
2023/09/07 09:51:19;;;;;;;0.08;0.08;;;;;;;29.72;57.35;99489.78;5112877;28;20182;-56
2023/09/07 09:54:07;;;;;;;0.00;0.00;;;;;;;30.24;54.40;99479.78;5114984;28;20252;-55
2023/09/07 09:56:54;;;;;;;0.00;0.00;;;;;;;30.24;53.50;99476.22;5115390;28;20236;-56
2023/09/07 09:59:43;;;;;;;0.00;0.00;;;;;;;30.58;52.76;99484.00;5114802;28;20189;-56
2023/09/07 10:02:32;;;;;;;0.00;0.00;;;;;;;31.10;50.31;99472.94;5115189;28;20201;-56
2023/09/07 10:05:20;;;;;;;0.00;0.00;;;;;;;31.19;49.00;99471.59;5114340;28;20292;-55
2023/09/07 10:08:13;;;;;;;0.00;0.00;;;;;;;31.42;48.54;99471.81;5113723;28;20305;-56
2023/09/07 10:11:00;;;;;;;0.00;0.00;;;;;;;31.42;48.71;99476.44;5114832;28;20664;-56
2023/09/07 10:13:57;;;;;;;0.00;0.00;;;;;;;31.08;49.09;99473.16;5114751;28;20263;-56
2023/09/07 10:16:45;;;;;;;0.00;0.00;;;;;;;31.48;49.01;99470.91;5114614;28;20198;-55
2023/09/07 10:19:36;;;;;;;0.00;0.00;;;;;;;31.93;46.58;99467.06;5115079;28;20198;-56
2023/09/07 10:22:23;;;;;;;0.00;0.00;;;;;;;33.31;43.59;99462.31;5113162;28;20190;-56
2023/09/07 10:25:20;;;;;;;0.00;0.00;;;;;;;36.01;38.59;99463.78;5114733;28;20202;-56
2023/09/07 10:28:06;;;;;;;0.00;0.00;;;;;;;36.80;36.87;99457.75;5113305;28;20193;-56
2023/09/07 10:31:04;;;;;;;0.00;0.00;;;;;;;37.87;34.68;99448.31;5114261;28;20193;-56
2023/09/07 10:33:51;;;;;;;0.00;0.00;;;;;;;38.80;32.44;99455.78;5114331;28;20190;-56
2023/09/07 10:36:40;;;;;;;0.00;0.00;;;;;;;39.57;31.50;99451.06;5113242;28;20197;-56
2023/09/07 10:39:31;;;;;;;0.00;0.00;;;;;;;39.95;31.40;99452.31;5114186;28;20193;-56
2023/09/07 10:42:24;;;;;;;0.00;0.00;;;;;;;41.47;29.49;99445.72;5114067;28;20209;-56
2023/09/07 10:45:15;;;;;;;0.00;0.00;;;;;;;39.98;30.84;99449.81;5113873;28;20232;-56
2023/09/07 10:48:04;;;;;;;0.00;0.00;;;;;;;40.51;29.75;99438.19;5114177;28;20197;-56
2023/09/07 10:50:52;;;;;;;0.00;0.00;;;;;;;41.56;29.16;99448.69;5113912;28;20201;-56
2023/09/07 10:53:40;;;;;;;0.00;0.00;;;;;;;42.05;28.25;99438.38;5114173;28;20194;-56
2023/09/07 10:56:27;;;;;;;0.00;0.00;;;;;;;42.62;27.04;99436.50;5113917;28;20193;-56
2023/09/07 10:59:15;;;;;;;0.00;0.00;;;;;;;41.91;27.08;99429.97;5114079;28;20197;-57
2023/09/07 11:02:05;;;;;;;0.00;0.00;;;;;;;42.28;26.74;99424.47;5113323;28;20240;-57
2023/09/07 11:04:52;;;;;;;0.00;0.00;;;;;;;42.73;26.56;99424.06;5113665;28;20229;-56
2023/09/07 11:07:43;;;;;;;0.00;0.00;;;;;;;44.72;24.73;99415.34;5112120;28;20197;-57
2023/09/07 11:10:34;;;;;;;0.00;0.00;;;;;;;44.24;25.57;99416.72;5113922;28;20292;-56
2023/09/07 11:13:24;;;;;;;0.00;0.00;;;;;;;42.85;26.20;99405.75;5113237;28;20194;-56
2023/09/07 11:16:11;;;;;;;0.00;0.00;;;;;;;46.13;23.03;99411.75;5113644;28;20190;-56
2023/09/07 11:19:00;;;;;;;0.00;0.00;;;;;;;44.44;24.56;99409.00;5112297;28;20240;-56
2023/09/07 11:21:47;;;;;;;0.00;0.00;;;;;;;45.60;24.26;99405.16;5112279;28;20260;-56
2023/09/07 11:24:35;;;;;;;0.00;0.00;;;;;;;45.59;24.61;99411.91;5113274;28;20197;-56
2023/09/07 11:27:26;;;;;;;0.00;0.00;;;;;;;43.77;25.88;99403.22;5113515;28;20292;-56
2023/09/07 11:30:13;;;;;;;0.00;0.00;;;;;;;44.12;25.57;99415.59;5113269;28;20190;-56
2023/09/07 11:33:03;;;;;;;0.00;0.00;;;;;;;43.54;25.55;99408.69;5113330;28;20200;-56
2023/09/07 11:35:51;;;;;;;0.00;0.00;;;;;;;43.32;25.42;99409.34;5113211;28;20263;-56
2023/09/07 11:38:38;;;;;;;0.00;0.00;;;;;;;44.19;24.59;99408.44;5113481;28;20194;-56
2023/09/07 11:41:25;;;;;;;0.00;0.00;;;;;;;45.14;24.60;99410.34;5112865;28;20197;-56
2023/09/07 11:44:13;;;;;;;0.00;0.00;;;;;;;45.22;24.15;99404.78;5112730;28;20181;-56
2023/09/07 11:47:00;;;;;;;0.00;0.00;;;;;;;43.64;25.26;99402.91;5112989;28;20284;-56
2023/09/07 11:49:48;;;;;;;0.00;0.00;;;;;;;43.70;25.37;99404.44;5113358;28;20193;-56
2023/09/07 11:52:35;;;;;;;0.00;0.00;;;;;;;44.85;24.28;99399.63;5111297;28;20232;-56
2023/09/07 11:55:22;;;;;;;0.00;0.00;;;;;;;44.63;23.95;99401.28;5113279;28;20193;-56
2023/09/07 11:58:09;;;;;;;0.00;0.00;;;;;;;46.29;22.57;99392.47;5112910;28;20273;-56
2023/09/07 12:00:57;;;;;;;0.00;0.00;;;;;;;46.37;22.65;99391.66;5113237;28;20185;-56
2023/09/07 12:03:44;;;;;;;0.00;0.00;;;;;;;46.94;21.85;99389.47;5112569;28;20190;-56
2023/09/07 12:06:31;;;;;;;0.00;0.00;;;;;;;45.96;22.87;99390.13;5111712;28;20198;-56
2023/09/07 12:09:18;;;;;;;0.00;0.00;;;;;;;46.50;22.62;99380.28;5113058;28;20197;-56
2023/09/07 12:12:06;;;;;;;0.00;0.00;;;;;;;47.00;21.82;99382.53;5112883;28;20325;-56
2023/09/07 12:14:52;;;;;;;0.00;0.00;;;;;;;46.80;22.11;99374.78;5112555;28;20227;-55
2023/09/07 12:17:41;;;;;;;0.00;0.00;;;;;;;47.04;21.77;99380.69;5113066;28;20209;-56
2023/09/07 12:20:28;;;;;;;0.00;0.00;;;;;;;46.68;22.11;99380.25;5112829;28;20224;-56
2023/09/07 12:23:15;;;;;;;0.00;0.00;;;;;;;46.60;21.54;99375.50;5111432;28;20197;-56
2023/09/07 12:26:04;;;;;;;0.00;0.00;;;;;;;46.67;22.01;99371.03;5112635;28;20256;-56
2023/09/07 12:28:50;;;;;;;0.00;0.00;;;;;;;46.07;21.83;99366.25;5112948;28;20190;-56
2023/09/07 12:31:37;;;;;;;0.00;0.00;;;;;;;46.35;22.20;99365.94;5112409;28;20251;-56
2023/09/07 12:34:26;;;;;;;0.00;0.00;;;;;;;47.04;21.87;99363.88;5112899;28;20198;-56
2023/09/07 12:37:15;;;;;;;0.00;0.00;;;;;;;47.43;21.44;99358.28;5111440;28;20672;-56
2023/09/07 12:40:06;;;;;;;0.00;0.00;;;;;;;45.06;23.44;99353.19;5112705;28;20197;-56
2023/09/07 12:42:53;;;;;;;0.00;0.00;;;;;;;46.44;22.89;99356.41;5112639;28;20189;-56
2023/09/07 12:45:40;;;;;;;0.00;0.00;;;;;;;46.90;21.56;99354.81;5112870;28;20193;-56
2023/09/07 12:48:29;;;;;;;0.00;0.00;;;;;;;46.47;22.31;99361.31;5112527;28;20684;-57
2023/09/07 12:51:17;;;;;;;0.00;0.00;;;;;;;46.34;22.20;99362.31;5111387;28;20201;-57
2023/09/07 12:54:04;;;;;;;0.00;0.00;;;;;;;45.08;23.01;99353.72;5113485;28;20212;-57
2023/09/07 12:56:51;;;;;;;0.00;0.00;;;;;;;47.17;21.44;99358.38;5116567;28;20316;-56
2023/09/07 12:59:38;;;;;;;0.00;0.00;;;;;;;45.63;22.74;99358.88;5116270;28;20235;-57
2023/09/07 13:02:25;;;;;;;0.00;0.00;;;;;;;46.36;22.64;99351.59;5116286;28;20193;-57
2023/09/07 13:05:12;;;;;;;0.00;0.00;;;;;;;46.03;22.31;99348.41;5115816;28;20221;-56